createdAt,value
2023-02-19T00:00:35.441Z,1.27
2023-02-19T00:03:38.645Z,0.98
2023-02-19T00:06:42.330Z,0.64
2023-02-19T00:09:44.815Z,1.04
2023-02-19T00:12:47.242Z,0.94
2023-02-19T00:15:49.832Z,1.06
2023-02-19T00:18:52.902Z,0.88
2023-02-19T00:21:55.370Z,0.90
2023-02-19T00:24:57.816Z,1.10
2023-02-19T00:28:00.163Z,0.89
2023-02-19T00:31:35.835Z,0.92
2023-02-19T00:34:38.387Z,0.77
2023-02-19T00:37:40.886Z,0.58
2023-02-19T00:40:43.340Z,0.78
2023-02-19T00:44:07.076Z,1.15
2023-02-19T00:47:09.623Z,0.86
2023-02-19T00:50:14.496Z,0.90
2023-02-19T00:53:18.463Z,0.94
2023-02-19T00:56:21.373Z,0.92
2023-02-19T00:59:23.710Z,1.00
2023-02-19T01:02:26.932Z,0.82
2023-02-19T01:05:29.353Z,0.96
2023-02-19T01:08:32.818Z,0.67
2023-02-19T01:11:36.559Z,1.06
2023-02-19T01:14:39.576Z,0.70
2023-02-19T01:17:41.911Z,0.91
2023-02-19T01:20:45.438Z,0.92
2023-02-19T01:23:48.812Z,0.95
2023-02-19T01:26:51.241Z,0.67
2023-02-19T01:29:53.845Z,0.46
2023-02-19T01:32:56.166Z,0.88
2023-02-19T01:35:58.613Z,0.59
2023-02-19T01:39:05.178Z,0.74
2023-02-19T01:42:14.863Z,0.72
2023-02-19T01:45:24.952Z,0.75
2023-02-19T01:48:35.428Z,0.69
2023-02-19T01:51:41.980Z,0.68
2023-02-19T01:54:45.040Z,0.87
2023-02-19T01:57:49.466Z,0.89
2023-02-19T02:00:52.864Z,0.94
2023-02-19T02:03:55.389Z,1.00
2023-02-19T02:06:58.336Z,0.78
2023-02-19T02:10:19.404Z,0.83
2023-02-19T02:13:22.036Z,0.81
2023-02-19T02:16:26.191Z,1.00
2023-02-19T02:19:33.176Z,0.73
2023-02-19T02:23:10.311Z,0.77
2023-02-19T02:26:27.642Z,0.75
2023-02-19T02:29:30.014Z,0.76
2023-02-19T02:32:53.564Z,0.95
2023-02-19T02:36:24.865Z,1.01
2023-02-19T02:39:28.694Z,1.05
2023-02-19T02:42:31.156Z,1.07
2023-02-19T02:45:44.653Z,1.13
2023-02-19T02:48:58.775Z,1.11
2023-02-19T02:52:21.977Z,1.10
2023-02-19T02:55:25.884Z,0.91
2023-02-19T02:58:29.018Z,0.84
2023-02-19T03:01:55.886Z,1.20
2023-02-19T03:05:31.098Z,0.99
2023-02-19T03:08:44.455Z,0.87
2023-02-19T03:12:08.934Z,0.75
2023-02-19T03:15:30.016Z,0.91
2023-02-19T03:18:52.632Z,1.10
2023-02-19T03:22:01.567Z,1.24
2023-02-19T03:25:32.406Z,1.28
2023-02-19T03:28:57.619Z,1.21
2023-02-19T03:32:04.691Z,1.25
2023-02-19T03:35:11.050Z,1.08
2023-02-19T03:38:25.738Z,1.15
2023-02-19T03:41:34.578Z,1.50
2023-02-19T03:44:53.231Z,1.28
2023-02-19T03:48:19.070Z,1.25
2023-02-19T03:51:39.291Z,1.24
2023-02-19T03:55:06.381Z,1.15
2023-02-19T03:58:23.062Z,1.37
2023-02-19T04:01:43.128Z,1.29
2023-02-19T04:04:51.030Z,1.27
2023-02-19T04:07:57.611Z,1.42
2023-02-19T04:11:07.018Z,1.11
2023-02-19T04:14:16.900Z,1.25
2023-02-19T04:17:38.247Z,1.25
2023-02-19T04:20:43.748Z,0.95
2023-02-19T04:23:46.467Z,1.15
2023-02-19T04:26:48.994Z,1.31
2023-02-19T04:29:51.547Z,1.30
2023-02-19T04:32:54.024Z,0.96
2023-02-19T04:35:56.484Z,0.84
2023-02-19T04:38:59.073Z,1.01
2023-02-19T04:42:01.437Z,1.20
2023-02-19T04:45:04.002Z,0.79
2023-02-19T04:48:06.543Z,0.60
2023-02-19T04:51:09.748Z,0.75
2023-02-19T04:54:12.250Z,0.85
2023-02-19T04:57:14.555Z,1.12
2023-02-19T05:00:16.978Z,1.16
2023-02-19T05:03:19.518Z,1.13
2023-02-19T05:06:22.015Z,1.30
2023-02-19T05:09:24.509Z,0.75
2023-02-19T05:12:27.479Z,1.06
2023-02-19T05:15:29.922Z,1.07
2023-02-19T05:18:33.419Z,1.06
2023-02-19T05:21:35.831Z,1.15
2023-02-19T05:24:38.148Z,1.33
2023-02-19T05:27:40.458Z,0.92
2023-02-19T05:30:43.192Z,0.99
2023-02-19T05:33:50.282Z,1.03
2023-02-19T05:36:52.618Z,1.05
2023-02-19T05:39:55.017Z,0.75
2023-02-19T05:42:57.351Z,1.12
2023-02-19T05:45:59.887Z,0.77
2023-02-19T05:49:03.448Z,0.54
2023-02-19T05:52:05.930Z,0.73
2023-02-19T05:55:08.571Z,0.48
2023-02-19T05:58:10.963Z,0.91
2023-02-19T06:01:24.605Z,1.12
2023-02-19T06:04:27.055Z,1.15
2023-02-19T06:07:29.568Z,1.06
2023-02-19T06:10:32.170Z,0.82
2023-02-19T06:13:35.045Z,0.94
2023-02-19T06:16:37.438Z,0.92
2023-02-19T06:19:39.930Z,1.02
2023-02-19T06:22:42.228Z,0.95
2023-02-19T06:25:44.530Z,1.15
2023-02-19T06:28:48.588Z,1.06
2023-02-19T06:31:50.889Z,0.86
2023-02-19T06:34:53.202Z,0.68
2023-02-19T06:37:55.696Z,0.72
2023-02-19T06:41:02.322Z,0.92
2023-02-19T06:44:04.735Z,0.66
2023-02-19T06:47:07.176Z,0.69
2023-02-19T06:50:09.605Z,1.00
2023-02-19T06:53:11.978Z,0.92
2023-02-19T06:56:26.641Z,1.15
2023-02-19T06:59:28.968Z,0.89
2023-02-19T07:02:31.253Z,0.83
2023-02-19T07:05:33.804Z,1.07
2023-02-19T07:08:36.144Z,0.74
2023-02-19T07:11:40.085Z,0.95
2023-02-19T07:14:42.618Z,1.06
2023-02-19T07:17:45.071Z,1.25
2023-02-19T07:20:47.897Z,0.83
2023-02-19T07:23:50.634Z,1.21
2023-02-19T07:26:53.178Z,1.12
2023-02-19T07:29:55.544Z,1.21
2023-02-19T07:32:58.187Z,1.39
2023-02-19T07:36:00.600Z,1.28
2023-02-19T07:39:02.980Z,1.38
2023-02-19T07:42:05.834Z,1.41
2023-02-19T07:45:08.473Z,1.38
2023-02-19T07:48:10.789Z,1.85
2023-02-19T07:51:18.981Z,1.96
2023-02-19T07:54:21.378Z,2.09
2023-02-19T07:57:23.813Z,1.86
2023-02-19T08:00:26.792Z,1.88
2023-02-19T08:03:29.208Z,2.17
2023-02-19T08:06:31.611Z,1.94
2023-02-19T08:09:34.435Z,1.91
2023-02-19T08:12:55.453Z,2.09
2023-02-19T08:16:18.249Z,2.07
2023-02-19T08:19:22.791Z,2.37
2023-02-19T08:22:25.131Z,2.29
2023-02-19T08:25:27.459Z,2.34
2023-02-19T08:28:30.715Z,2.34
2023-02-19T08:31:34.269Z,2.12
2023-02-19T08:34:37.185Z,2.42
2023-02-19T08:37:39.778Z,2.57
2023-02-19T08:40:42.629Z,2.61
2023-02-19T08:43:44.966Z,2.74
2023-02-19T08:46:47.422Z,2.79
2023-02-19T08:49:53.469Z,3.00
2023-02-19T08:52:57.537Z,3.04
2023-02-19T08:56:00.846Z,3.06
2023-02-19T08:59:03.578Z,3.13
2023-02-19T09:02:06.195Z,3.15
2023-02-19T09:05:09.400Z,3.29
2023-02-19T09:08:12.116Z,3.19
2023-02-19T09:11:15.682Z,2.93
2023-02-19T09:14:18.785Z,3.32
2023-02-19T09:17:21.511Z,3.49
2023-02-19T09:20:24.391Z,3.68
2023-02-19T09:23:27.071Z,3.69
2023-02-19T09:26:29.662Z,3.69
2023-02-19T09:29:34.632Z,3.69
2023-02-19T09:32:37.086Z,3.76
2023-02-19T09:35:40.717Z,3.92
2023-02-19T09:38:43.623Z,3.97
2023-02-19T09:42:00.064Z,3.74
2023-02-19T09:45:02.850Z,3.75
2023-02-19T09:48:06.419Z,4.07
2023-02-19T09:51:10.480Z,4.34
2023-02-19T09:54:39.441Z,4.07
2023-02-19T09:57:42.372Z,3.99
2023-02-19T10:00:49.499Z,4.11
2023-02-19T10:03:52.241Z,4.43
2023-02-19T10:06:59.139Z,4.45
2023-02-19T10:10:17.961Z,4.31
2023-02-19T10:13:23.417Z,4.34
2023-02-19T10:16:27.676Z,4.85
2023-02-19T10:19:30.017Z,4.94
2023-02-19T10:22:34.121Z,4.90
2023-02-19T10:25:36.634Z,4.84
2023-02-19T10:28:39.146Z,4.70
2023-02-19T10:31:41.893Z,4.87
2023-02-19T10:34:44.813Z,4.67
2023-02-19T10:37:49.416Z,4.93
2023-02-19T10:40:59.102Z,5.09
2023-02-19T10:44:19.584Z,5.12
2023-02-19T10:47:24.706Z,5.27
2023-02-19T10:50:32.172Z,5.10
2023-02-19T10:54:16.027Z,5.15
2023-02-19T10:57:30.587Z,5.23
2023-02-19T11:00:32.856Z,5.57
2023-02-19T11:03:35.244Z,5.47
2023-02-19T11:06:37.657Z,5.13
2023-02-19T11:09:45.590Z,4.79
2023-02-19T11:12:50.196Z,4.61
2023-02-19T11:15:54.080Z,4.44
2023-02-19T11:18:57.457Z,5.10
2023-02-19T11:22:00.568Z,5.34
2023-02-19T11:25:25.880Z,5.63
2023-02-19T11:28:36.833Z,5.55
2023-02-19T11:31:39.428Z,5.50
2023-02-19T11:34:42.128Z,5.81
2023-02-19T11:37:59.351Z,6.18
2023-02-19T11:41:20.333Z,5.96
2023-02-19T11:44:54.286Z,6.35
2023-02-19T11:48:19.489Z,6.36
2023-02-19T11:51:52.740Z,6.20
2023-02-19T11:55:02.238Z,6.32
2023-02-19T11:58:33.968Z,6.04
2023-02-19T12:01:42.161Z,6.07
2023-02-19T12:05:27.074Z,6.37
2023-02-19T12:08:29.678Z,6.09
2023-02-19T12:11:44.990Z,5.63
2023-02-19T12:15:00.495Z,5.61
2023-02-19T12:18:32.234Z,5.34
2023-02-19T12:21:55.844Z,5.25
2023-02-19T12:25:17.015Z,5.04
2023-02-19T12:28:38.471Z,5.06
2023-02-19T12:31:56.749Z,5.06
2023-02-19T12:35:16.811Z,5.16
2023-02-19T12:38:33.674Z,5.15
2023-02-19T12:41:45.659Z,5.07
2023-02-19T12:44:53.896Z,4.96
2023-02-19T12:48:17.828Z,5.07
2023-02-19T12:51:37.215Z,4.65
2023-02-19T12:54:42.125Z,4.74
2023-02-19T12:57:44.575Z,4.83
2023-02-19T13:00:51.278Z,5.13
2023-02-19T13:04:15.322Z,5.21
2023-02-19T13:07:32.534Z,5.23
2023-02-19T13:10:41.834Z,5.37
2023-02-19T13:13:48.953Z,5.29
2023-02-19T13:16:55.291Z,5.65
2023-02-19T13:20:05.623Z,5.44
2023-02-19T13:23:27.936Z,5.74
2023-02-19T13:27:08.714Z,5.31
2023-02-19T13:30:52.522Z,5.32
2023-02-19T13:34:05.976Z,5.24
2023-02-19T13:37:09.200Z,5.03
2023-02-19T13:40:28.442Z,4.81
2023-02-19T13:43:42.999Z,4.86
2023-02-19T13:46:46.524Z,4.56
2023-02-19T13:49:52.325Z,4.74
2023-02-19T13:52:56.410Z,5.08
2023-02-19T13:55:59.021Z,5.30
2023-02-19T13:59:24.405Z,5.59
2023-02-19T14:02:33.295Z,4.83
2023-02-19T14:05:58.543Z,5.84
2023-02-19T14:09:01.080Z,5.73
2023-02-19T14:12:06.364Z,5.82
2023-02-19T14:15:44.436Z,5.83
2023-02-19T14:18:47.402Z,5.79
2023-02-19T14:21:49.876Z,6.07
2023-02-19T14:24:54.319Z,5.88
2023-02-19T14:28:18.022Z,5.97
2023-02-19T14:31:33.430Z,5.91
2023-02-19T14:34:36.240Z,6.01
2023-02-19T14:37:38.650Z,6.02
2023-02-19T14:40:43.685Z,5.83
2023-02-19T14:43:48.138Z,5.75
2023-02-19T14:46:55.015Z,5.75
2023-02-19T14:50:14.294Z,6.60
2023-02-19T14:53:17.587Z,7.04
2023-02-19T14:56:23.973Z,6.94
2023-02-19T14:59:30.956Z,6.61
2023-02-19T15:02:33.605Z,6.31
2023-02-19T15:05:37.575Z,5.43
2023-02-19T15:08:45.152Z,5.05
2023-02-19T15:11:47.747Z,4.55
2023-02-19T15:14:52.435Z,4.38
2023-02-19T15:17:55.284Z,4.24
2023-02-19T15:21:03.417Z,3.91
2023-02-19T15:24:06.595Z,4.02
2023-02-19T15:27:20.122Z,3.84
2023-02-19T15:30:29.619Z,3.80
2023-02-19T15:33:32.109Z,3.65
2023-02-19T15:36:35.115Z,3.46
2023-02-19T15:39:48.212Z,3.46
2023-02-19T15:42:50.678Z,3.20
2023-02-19T15:45:57.706Z,2.99
2023-02-19T15:49:10.006Z,2.81
2023-02-19T15:52:20.134Z,2.72
2023-02-19T15:55:32.360Z,2.71
2023-02-19T15:58:44.489Z,2.48
2023-02-19T16:01:47.180Z,2.44
2023-02-19T16:04:49.941Z,2.23
2023-02-19T16:08:18.425Z,1.96
2023-02-19T16:11:37.705Z,1.96
2023-02-19T16:14:40.230Z,1.96
2023-02-19T16:17:44.377Z,1.94
2023-02-19T16:20:48.053Z,1.73
2023-02-19T16:23:54.943Z,1.75
2023-02-19T16:26:58.225Z,1.53
2023-02-19T16:30:08.210Z,1.52
2023-02-19T16:33:37.237Z,1.55
2023-02-19T16:36:42.628Z,1.37
2023-02-19T16:39:44.871Z,1.22
2023-02-19T16:42:50.031Z,1.29
2023-02-19T16:45:52.927Z,1.09
2023-02-19T16:48:55.541Z,0.89
2023-02-19T16:52:04.290Z,0.95
2023-02-19T16:55:14.254Z,0.86
2023-02-19T16:58:16.919Z,0.69
2023-02-19T17:01:19.536Z,0.83
2023-02-19T17:04:22.362Z,0.74
2023-02-19T17:07:28.176Z,0.85
2023-02-19T17:10:32.085Z,0.77
2023-02-19T17:13:35.214Z,0.83
2023-02-19T17:16:42.090Z,0.61
2023-02-19T17:19:44.456Z,0.79
2023-02-19T17:22:46.919Z,0.82
2023-02-19T17:25:49.308Z,0.70
2023-02-19T17:28:52.033Z,0.66
2023-02-19T17:31:55.352Z,0.60
2023-02-19T17:35:02.190Z,0.67
2023-02-19T17:38:11.551Z,0.66
2023-02-19T17:41:15.822Z,0.70
2023-02-19T17:44:22.206Z,0.73
2023-02-19T17:47:27.363Z,0.43
2023-02-19T17:50:33.917Z,0.40
2023-02-19T17:53:38.595Z,0.32
2023-02-19T17:56:44.690Z,0.52
2023-02-19T17:59:51.553Z,0.41
2023-02-19T18:02:55.979Z,0.19
2023-02-19T18:05:58.785Z,0.26
2023-02-19T18:09:01.038Z,0.12
2023-02-19T18:12:03.459Z,0.25
2023-02-19T18:15:07.619Z,0.18
2023-02-19T18:18:09.947Z,0.18
2023-02-19T18:21:15.132Z,0.28
2023-02-19T18:24:17.484Z,0.05
2023-02-19T18:27:20.726Z,0.28
2023-02-19T18:30:23.972Z,0.27
2023-02-19T18:33:26.559Z,0.17
2023-02-19T18:36:29.010Z,0.28
2023-02-19T18:39:31.387Z,0.09
2023-02-19T18:42:33.751Z,0.06
2023-02-19T18:45:37.424Z,-0.12
2023-02-19T18:48:39.784Z,-0.09
2023-02-19T18:51:43.550Z,-0.18
2023-02-19T18:54:45.925Z,-0.05
2023-02-19T18:57:48.838Z,0.11
2023-02-19T19:00:51.216Z,0.70
2023-02-19T19:03:53.524Z,0.31
2023-02-19T19:06:56.008Z,0.28
2023-02-19T19:09:58.425Z,0.17
2023-02-19T19:13:00.766Z,0.15
2023-02-19T19:16:03.240Z,0.38
2023-02-19T19:19:05.705Z,0.18
2023-02-19T19:22:08.169Z,0.38
2023-02-19T19:25:10.795Z,0.15
2023-02-19T19:28:13.068Z,0.22
2023-02-19T19:31:17.017Z,0.26
2023-02-19T19:34:19.390Z,0.17
2023-02-19T19:37:21.772Z,-0.04
2023-02-19T19:40:24.308Z,-0.11
2023-02-19T19:43:28.175Z,-0.05
2023-02-19T19:46:30.532Z,0.02
2023-02-19T19:49:33.562Z,0.03
2023-02-19T19:52:36.026Z,0.02
2023-02-19T19:55:38.475Z,0.10
2023-02-19T19:58:40.891Z,0.10
2023-02-19T20:01:50.168Z,-0.13
2023-02-19T20:04:52.771Z,-0.04
2023-02-19T20:07:55.562Z,-0.11
2023-02-19T20:10:57.944Z,0.02
2023-02-19T20:14:00.506Z,-0.03
2023-02-19T20:17:03.320Z,-0.23
2023-02-19T20:20:06.969Z,-0.21
2023-02-19T20:23:09.705Z,-0.23
2023-02-19T20:26:12.567Z,-0.18
2023-02-19T20:29:14.916Z,-0.17
2023-02-19T20:32:20.961Z,-0.28
2023-02-19T20:35:26.487Z,-0.33
2023-02-19T20:38:28.937Z,-0.29
2023-02-19T20:41:31.397Z,-0.38
2023-02-19T20:44:34.264Z,-0.34
2023-02-19T20:47:37.789Z,-0.23
2023-02-19T20:50:40.163Z,-0.30
2023-02-19T20:53:43.474Z,-0.08
2023-02-19T20:56:50.284Z,-0.20
2023-02-19T20:59:53.169Z,0.08
2023-02-19T21:02:55.537Z,0.05
2023-02-19T21:05:57.826Z,-0.42
2023-02-19T21:09:00.207Z,-0.35
2023-02-19T21:12:02.533Z,-0.34
2023-02-19T21:15:05.978Z,-0.19
2023-02-19T21:18:08.747Z,-0.29
2023-02-19T21:21:11.620Z,-0.38
2023-02-19T21:24:15.338Z,-0.47
2023-02-19T21:27:18.578Z,-0.38
2023-02-19T21:30:21.336Z,-0.38
2023-02-19T21:33:23.930Z,-0.24
2023-02-19T21:36:26.453Z,-0.35
2023-02-19T21:39:30.596Z,-0.29
2023-02-19T21:42:33.136Z,-0.39
2023-02-19T21:45:35.593Z,-0.08
2023-02-19T21:48:37.950Z,-0.23
2023-02-19T21:51:42.227Z,-0.08
2023-02-19T21:54:44.564Z,-0.26
2023-02-19T21:57:46.910Z,-0.15
2023-02-19T22:00:49.275Z,-0.32
2023-02-19T22:03:52.030Z,-0.23
2023-02-19T22:06:57.742Z,-0.34
2023-02-19T22:10:00.120Z,-0.49
2023-02-19T22:13:02.462Z,-0.35
2023-02-19T22:16:04.879Z,-0.38
2023-02-19T22:19:07.263Z,-0.46
2023-02-19T22:22:09.631Z,-0.64
2023-02-19T22:25:12.143Z,-0.31
2023-02-19T22:28:14.610Z,-0.29
2023-02-19T22:31:18.475Z,-0.15
2023-02-19T22:34:21.053Z,-0.40
2023-02-19T22:37:23.510Z,-0.19
2023-02-19T22:40:25.823Z,-0.36
2023-02-19T22:43:28.087Z,-0.43
2023-02-19T22:46:31.371Z,-0.44
2023-02-19T22:49:33.758Z,-0.56
2023-02-19T22:52:36.172Z,-0.63
2023-02-19T22:55:38.672Z,-0.68
2023-02-19T22:58:41.420Z,-0.52
2023-02-19T23:01:43.787Z,-0.50
2023-02-19T23:04:46.145Z,-0.62
2023-02-19T23:07:48.454Z,-0.56
2023-02-19T23:10:51.240Z,-0.44
2023-02-19T23:13:53.707Z,-0.38
2023-02-19T23:16:56.083Z,-0.38
2023-02-19T23:19:58.425Z,-0.41
2023-02-19T23:23:00.952Z,-0.08
2023-02-19T23:26:04.743Z,-0.18
2023-02-19T23:29:06.992Z,0.01
2023-02-19T23:32:09.471Z,-0.02
2023-02-19T23:35:11.791Z,-0.03
2023-02-19T23:38:14.197Z,-0.12
2023-02-19T23:41:17.635Z,0.08
2023-02-19T23:44:21.194Z,-0.23
2023-02-19T23:47:25.934Z,-0.02
2023-02-19T23:50:28.636Z,0.13
2023-02-19T23:53:31.042Z,-0.00
2023-02-19T23:56:33.928Z,0.18
2023-02-19T23:59:36.294Z,-0.01
